sensor_id;sensor_type;location;lat;lon;timestamp;P1;durP1;ratioP1;P2;durP2;ratioP2
32228;SDS011;18717;48.034;11.186;2023-07-02T00:02:21;12.40;;;11.65;;
32228;SDS011;18717;48.034;11.186;2023-07-02T00:04:48;12.63;;;11.93;;
32228;SDS011;18717;48.034;11.186;2023-07-02T00:07:16;11.90;;;11.20;;
32228;SDS011;18717;48.034;11.186;2023-07-02T00:09:44;12.75;;;11.82;;
32228;SDS011;18717;48.034;11.186;2023-07-02T00:12:13;12.13;;;11.43;;
32228;SDS011;18717;48.034;11.186;2023-07-02T00:14:41;12.65;;;11.75;;
32228;SDS011;18717;48.034;11.186;2023-07-02T00:17:09;12.77;;;11.82;;
32228;SDS011;18717;48.034;11.186;2023-07-02T00:19:38;18.65;;;14.30;;
32228;SDS011;18717;48.034;11.186;2023-07-02T00:22:08;16.08;;;14.73;;
32228;SDS011;18717;48.034;11.186;2023-07-02T00:24:36;14.18;;;13.10;;
32228;SDS011;18717;48.034;11.186;2023-07-02T00:27:04;12.32;;;11.52;;
32228;SDS011;18717;48.034;11.186;2023-07-02T00:29:33;11.85;;;11.15;;
32228;SDS011;18717;48.034;11.186;2023-07-02T00:32:01;11.85;;;11.05;;
32228;SDS011;18717;48.034;11.186;2023-07-02T00:34:29;11.80;;;11.13;;
32228;SDS011;18717;48.034;11.186;2023-07-02T00:36:56;11.40;;;10.80;;
32228;SDS011;18717;48.034;11.186;2023-07-02T00:39:24;11.45;;;10.88;;
32228;SDS011;18717;48.034;11.186;2023-07-02T00:41:52;11.98;;;11.27;;
32228;SDS011;18717;48.034;11.186;2023-07-02T00:44:19;11.73;;;11.13;;
32228;SDS011;18717;48.034;11.186;2023-07-02T00:46:51;11.05;;;10.55;;
32228;SDS011;18717;48.034;11.186;2023-07-02T00:49:19;12.05;;;11.00;;
32228;SDS011;18717;48.034;11.186;2023-07-02T00:51:47;11.70;;;11.00;;
32228;SDS011;18717;48.034;11.186;2023-07-02T00:54:14;11.52;;;10.93;;
32228;SDS011;18717;48.034;11.186;2023-07-02T00:56:42;12.00;;;11.30;;
32228;SDS011;18717;48.034;11.186;2023-07-02T00:59:12;11.05;;;10.55;;
32228;SDS011;18717;48.034;11.186;2023-07-02T01:01:39;11.85;;;11.10;;
32228;SDS011;18717;48.034;11.186;2023-07-02T01:04:08;11.57;;;10.98;;
32228;SDS011;18717;48.034;11.186;2023-07-02T01:06:38;11.60;;;10.77;;
32228;SDS011;18717;48.034;11.186;2023-07-02T01:09:08;12.00;;;11.30;;
32228;SDS011;18717;48.034;11.186;2023-07-02T01:11:38;11.80;;;11.20;;
32228;SDS011;18717;48.034;11.186;2023-07-02T01:14:08;11.57;;;10.98;;
32228;SDS011;18717;48.034;11.186;2023-07-02T01:16:37;11.85;;;11.05;;
32228;SDS011;18717;48.034;11.186;2023-07-02T01:19:08;11.90;;;11.07;;
32228;SDS011;18717;48.034;11.186;2023-07-02T01:21:42;11.35;;;10.75;;
32228;SDS011;18717;48.034;11.186;2023-07-02T01:24:10;11.32;;;10.75;;
32228;SDS011;18717;48.034;11.186;2023-07-02T01:26:37;10.73;;;10.23;;
32228;SDS011;18717;48.034;11.186;2023-07-02T01:29:14;11.13;;;10.60;;
32228;SDS011;18717;48.034;11.186;2023-07-02T01:31:42;10.98;;;10.38;;
32228;SDS011;18717;48.034;11.186;2023-07-02T01:34:11;11.43;;;10.80;;
32228;SDS011;18717;48.034;11.186;2023-07-02T01:36:39;10.75;;;10.15;;
32228;SDS011;18717;48.034;11.186;2023-07-02T01:39:08;11.52;;;10.93;;
32228;SDS011;18717;48.034;11.186;2023-07-02T01:41:37;11.55;;;10.95;;
32228;SDS011;18717;48.034;11.186;2023-07-02T01:44:09;11.55;;;10.75;;
32228;SDS011;18717;48.034;11.186;2023-07-02T01:46:36;11.57;;;10.98;;
32228;SDS011;18717;48.034;11.186;2023-07-02T01:49:04;11.68;;;10.85;;
32228;SDS011;18717;48.034;11.186;2023-07-02T01:51:32;11.68;;;11.07;;
32228;SDS011;18717;48.034;11.186;2023-07-02T01:54:00;10.95;;;10.45;;
32228;SDS011;18717;48.034;11.186;2023-07-02T01:56:29;11.55;;;10.80;;
32228;SDS011;18717;48.034;11.186;2023-07-02T01:58:57;11.65;;;10.95;;
32228;SDS011;18717;48.034;11.186;2023-07-02T02:01:25;11.10;;;10.50;;
32228;SDS011;18717;48.034;11.186;2023-07-02T02:03:53;11.55;;;10.60;;
32228;SDS011;18717;48.034;11.186;2023-07-02T02:06:20;10.98;;;10.48;;
32228;SDS011;18717;48.034;11.186;2023-07-02T02:08:48;11.60;;;10.93;;
32228;SDS011;18717;48.034;11.186;2023-07-02T02:11:16;11.35;;;10.80;;
32228;SDS011;18717;48.034;11.186;2023-07-02T02:13:45;11.10;;;10.50;;
32228;SDS011;18717;48.034;11.186;2023-07-02T02:16:12;11.30;;;10.60;;
32228;SDS011;18717;48.034;11.186;2023-07-02T02:18:40;11.98;;;11.38;;
32228;SDS011;18717;48.034;11.186;2023-07-02T02:21:08;11.68;;;11.07;;
32228;SDS011;18717;48.034;11.186;2023-07-02T02:23:36;11.25;;;10.70;;
32228;SDS011;18717;48.034;11.186;2023-07-02T02:26:03;10.90;;;10.35;;
32228;SDS011;18717;48.034;11.186;2023-07-02T02:28:31;11.15;;;10.50;;
32228;SDS011;18717;48.034;11.186;2023-07-02T02:31:00;11.32;;;10.73;;
32228;SDS011;18717;48.034;11.186;2023-07-02T02:33:28;11.75;;;11.15;;
32228;SDS011;18717;48.034;11.186;2023-07-02T02:35:56;11.30;;;10.80;;
32228;SDS011;18717;48.034;11.186;2023-07-02T02:38:24;11.02;;;10.43;;
32228;SDS011;18717;48.034;11.186;2023-07-02T02:40:52;11.52;;;10.90;;
32228;SDS011;18717;48.034;11.186;2023-07-02T02:43:19;11.25;;;10.70;;
32228;SDS011;18717;48.034;11.186;2023-07-02T02:45:48;11.63;;;11.02;;
32228;SDS011;18717;48.034;11.186;2023-07-02T02:48:17;11.88;;;11.18;;
32228;SDS011;18717;48.034;11.186;2023-07-02T02:50:44;11.60;;;11.02;;
32228;SDS011;18717;48.034;11.186;2023-07-02T02:53:13;11.90;;;11.30;;
32228;SDS011;18717;48.034;11.186;2023-07-02T02:55:40;11.05;;;10.55;;
32228;SDS011;18717;48.034;11.186;2023-07-02T02:58:08;11.60;;;11.00;;
32228;SDS011;18717;48.034;11.186;2023-07-02T03:00:36;11.80;;;11.20;;
32228;SDS011;18717;48.034;11.186;2023-07-02T03:03:04;11.30;;;10.70;;
32228;SDS011;18717;48.034;11.186;2023-07-02T03:05:36;11.80;;;11.00;;
32228;SDS011;18717;48.034;11.186;2023-07-02T03:08:05;12.32;;;11.50;;
32228;SDS011;18717;48.034;11.186;2023-07-02T03:10:32;11.45;;;10.75;;
32228;SDS011;18717;48.034;11.186;2023-07-02T03:13:00;11.55;;;10.95;;
32228;SDS011;18717;48.034;11.186;2023-07-02T03:15:28;12.05;;;11.45;;
32228;SDS011;18717;48.034;11.186;2023-07-02T03:17:57;10.82;;;10.23;;
32228;SDS011;18717;48.034;11.186;2023-07-02T03:20:24;11.77;;;11.07;;
32228;SDS011;18717;48.034;11.186;2023-07-02T03:22:53;11.50;;;10.90;;
32228;SDS011;18717;48.034;11.186;2023-07-02T03:25:21;11.90;;;11.05;;
32228;SDS011;18717;48.034;11.186;2023-07-02T03:27:49;11.45;;;10.75;;
32228;SDS011;18717;48.034;11.186;2023-07-02T03:30:16;11.68;;;11.07;;
32228;SDS011;18717;48.034;11.186;2023-07-02T03:32:44;12.88;;;11.98;;
32228;SDS011;18717;48.034;11.186;2023-07-02T03:35:12;12.65;;;11.88;;
32228;SDS011;18717;48.034;11.186;2023-07-02T03:37:39;12.60;;;11.80;;
32228;SDS011;18717;48.034;11.186;2023-07-02T03:40:11;12.63;;;11.88;;
32228;SDS011;18717;48.034;11.186;2023-07-02T03:42:39;12.68;;;11.85;;
32228;SDS011;18717;48.034;11.186;2023-07-02T03:45:07;13.50;;;12.30;;
32228;SDS011;18717;48.034;11.186;2023-07-02T03:47:35;13.15;;;12.07;;
32228;SDS011;18717;48.034;11.186;2023-07-02T03:50:03;13.15;;;12.00;;
32228;SDS011;18717;48.034;11.186;2023-07-02T03:52:31;12.90;;;11.90;;
32228;SDS011;18717;48.034;11.186;2023-07-02T03:54:58;12.60;;;11.88;;
32228;SDS011;18717;48.034;11.186;2023-07-02T03:57:28;12.65;;;11.70;;
32228;SDS011;18717;48.034;11.186;2023-07-02T03:59:56;14.02;;;12.77;;
32228;SDS011;18717;48.034;11.186;2023-07-02T04:02:24;13.38;;;12.20;;
32228;SDS011;18717;48.034;11.186;2023-07-02T04:04:52;12.70;;;11.65;;
32228;SDS011;18717;48.034;11.186;2023-07-02T04:07:19;12.98;;;11.57;;
32228;SDS011;18717;48.034;11.186;2023-07-02T04:09:47;13.70;;;12.52;;
32228;SDS011;18717;48.034;11.186;2023-07-02T04:12:15;12.45;;;11.70;;
32228;SDS011;18717;48.034;11.186;2023-07-02T04:14:44;14.02;;;12.93;;
32228;SDS011;18717;48.034;11.186;2023-07-02T04:17:12;12.45;;;11.60;;
32228;SDS011;18717;48.034;11.186;2023-07-02T04:19:39;13.25;;;12.18;;
32228;SDS011;18717;48.034;11.186;2023-07-02T04:22:07;12.23;;;11.52;;
32228;SDS011;18717;48.034;11.186;2023-07-02T04:24:34;12.52;;;11.57;;
32228;SDS011;18717;48.034;11.186;2023-07-02T04:27:03;12.70;;;11.90;;
32228;SDS011;18717;48.034;11.186;2023-07-02T04:29:54;12.88;;;11.98;;
32228;SDS011;18717;48.034;11.186;2023-07-02T04:32:22;12.73;;;11.93;;
32228;SDS011;18717;48.034;11.186;2023-07-02T04:34:50;12.25;;;11.43;;
32228;SDS011;18717;48.034;11.186;2023-07-02T04:37:18;12.23;;;11.50;;
32228;SDS011;18717;48.034;11.186;2023-07-02T04:39:48;12.63;;;11.57;;
32228;SDS011;18717;48.034;11.186;2023-07-02T04:42:16;12.50;;;11.50;;
32228;SDS011;18717;48.034;11.186;2023-07-02T04:44:43;13.35;;;12.40;;
32228;SDS011;18717;48.034;11.186;2023-07-02T04:47:12;12.65;;;11.65;;
32228;SDS011;18717;48.034;11.186;2023-07-02T04:49:40;12.50;;;11.70;;
32228;SDS011;18717;48.034;11.186;2023-07-02T04:52:08;12.85;;;11.80;;
32228;SDS011;18717;48.034;11.186;2023-07-02T04:54:35;13.02;;;12.23;;
32228;SDS011;18717;48.034;11.186;2023-07-02T04:57:03;13.43;;;12.40;;
32228;SDS011;18717;48.034;11.186;2023-07-02T04:59:31;12.32;;;11.57;;
32228;SDS011;18717;48.034;11.186;2023-07-02T05:01:59;13.27;;;12.38;;
32228;SDS011;18717;48.034;11.186;2023-07-02T05:04:28;12.73;;;11.85;;
32228;SDS011;18717;48.034;11.186;2023-07-02T05:06:55;12.93;;;11.93;;
32228;SDS011;18717;48.034;11.186;2023-07-02T05:09:23;12.77;;;11.88;;
32228;SDS011;18717;48.034;11.186;2023-07-02T05:11:51;12.68;;;11.88;;
32228;SDS011;18717;48.034;11.186;2023-07-02T05:14:18;12.13;;;11.20;;
32228;SDS011;18717;48.034;11.186;2023-07-02T05:16:46;14.00;;;12.82;;
32228;SDS011;18717;48.034;11.186;2023-07-02T05:19:14;12.73;;;11.70;;
32228;SDS011;18717;48.034;11.186;2023-07-02T05:21:43;13.63;;;12.27;;
32228;SDS011;18717;48.034;11.186;2023-07-02T05:24:11;12.00;;;11.20;;
32228;SDS011;18717;48.034;11.186;2023-07-02T05:26:38;12.05;;;11.35;;
32228;SDS011;18717;48.034;11.186;2023-07-02T05:29:06;12.40;;;11.40;;
32228;SDS011;18717;48.034;11.186;2023-07-02T05:31:34;12.57;;;11.77;;
32228;SDS011;18717;48.034;11.186;2023-07-02T05:34:01;11.77;;;11.07;;
32228;SDS011;18717;48.034;11.186;2023-07-02T05:36:29;13.18;;;12.27;;
32228;SDS011;18717;48.034;11.186;2023-07-02T05:38:58;11.85;;;11.15;;
32228;SDS011;18717;48.034;11.186;2023-07-02T05:41:26;13.32;;;12.05;;
32228;SDS011;18717;48.034;11.186;2023-07-02T05:43:56;12.80;;;11.90;;
32228;SDS011;18717;48.034;11.186;2023-07-02T05:46:24;12.55;;;11.63;;
32228;SDS011;18717;48.034;11.186;2023-07-02T05:48:52;14.10;;;12.98;;
32228;SDS011;18717;48.034;11.186;2023-07-02T05:51:22;12.40;;;11.50;;
32228;SDS011;18717;48.034;11.186;2023-07-02T05:53:50;13.50;;;12.38;;
32228;SDS011;18717;48.034;11.186;2023-07-02T05:56:20;12.55;;;11.70;;
32228;SDS011;18717;48.034;11.186;2023-07-02T05:58:48;14.00;;;12.63;;
32228;SDS011;18717;48.034;11.186;2023-07-02T06:01:15;12.77;;;11.65;;
32228;SDS011;18717;48.034;11.186;2023-07-02T06:03:43;13.25;;;12.00;;
32228;SDS011;18717;48.034;11.186;2023-07-02T06:06:12;12.98;;;12.00;;
32228;SDS011;18717;48.034;11.186;2023-07-02T06:08:39;12.88;;;11.95;;
32228;SDS011;18717;48.034;11.186;2023-07-02T06:11:07;13.30;;;12.35;;
32228;SDS011;18717;48.034;11.186;2023-07-02T06:13:37;12.82;;;11.98;;
32228;SDS011;18717;48.034;11.186;2023-07-02T06:16:05;12.52;;;11.63;;
32228;SDS011;18717;48.034;11.186;2023-07-02T06:18:33;13.25;;;12.15;;
32228;SDS011;18717;48.034;11.186;2023-07-02T06:21:00;13.00;;;12.20;;
32228;SDS011;18717;48.034;11.186;2023-07-02T06:23:29;12.85;;;11.95;;
32228;SDS011;18717;48.034;11.186;2023-07-02T06:25:57;13.77;;;12.68;;
32228;SDS011;18717;48.034;11.186;2023-07-02T06:28:27;13.00;;;12.05;;
32228;SDS011;18717;48.034;11.186;2023-07-02T06:30:56;13.27;;;12.50;;
32228;SDS011;18717;48.034;11.186;2023-07-02T06:33:24;13.43;;;12.63;;
32228;SDS011;18717;48.034;11.186;2023-07-02T06:35:52;13.48;;;12.32;;
32228;SDS011;18717;48.034;11.186;2023-07-02T06:38:19;12.57;;;11.77;;
32228;SDS011;18717;48.034;11.186;2023-07-02T06:40:47;12.95;;;11.98;;
32228;SDS011;18717;48.034;11.186;2023-07-02T06:43:15;13.82;;;12.55;;
32228;SDS011;18717;48.034;11.186;2023-07-02T06:45:43;12.90;;;12.10;;
32228;SDS011;18717;48.034;11.186;2023-07-02T06:48:12;12.73;;;11.85;;
32228;SDS011;18717;48.034;11.186;2023-07-02T06:50:42;12.68;;;11.68;;
32228;SDS011;18717;48.034;11.186;2023-07-02T06:53:11;13.25;;;12.10;;
32228;SDS011;18717;48.034;11.186;2023-07-02T06:55:38;12.38;;;11.60;;
32228;SDS011;18717;48.034;11.186;2023-07-02T06:58:07;13.02;;;12.20;;
32228;SDS011;18717;48.034;11.186;2023-07-02T07:00:35;13.15;;;12.25;;
32228;SDS011;18717;48.034;11.186;2023-07-02T07:03:03;12.70;;;11.90;;
32228;SDS011;18717;48.034;11.186;2023-07-02T07:05:33;14.07;;;12.73;;
32228;SDS011;18717;48.034;11.186;2023-07-02T07:08:01;15.20;;;13.43;;
32228;SDS011;18717;48.034;11.186;2023-07-02T07:10:29;13.10;;;12.20;;
32228;SDS011;18717;48.034;11.186;2023-07-02T07:13:00;13.63;;;12.65;;
32228;SDS011;18717;48.034;11.186;2023-07-02T07:15:29;14.27;;;13.25;;
32228;SDS011;18717;48.034;11.186;2023-07-02T07:17:59;14.27;;;13.13;;
32228;SDS011;18717;48.034;11.186;2023-07-02T07:20:27;14.82;;;13.43;;
32228;SDS011;18717;48.034;11.186;2023-07-02T07:22:56;12.20;;;11.48;;
32228;SDS011;18717;48.034;11.186;2023-07-02T07:25:24;12.60;;;11.80;;
32228;SDS011;18717;48.034;11.186;2023-07-02T07:27:52;12.20;;;11.43;;
32228;SDS011;18717;48.034;11.186;2023-07-02T07:30:20;12.85;;;12.05;;
32228;SDS011;18717;48.034;11.186;2023-07-02T07:32:49;12.52;;;11.73;;
32228;SDS011;18717;48.034;11.186;2023-07-02T07:35:18;12.55;;;11.65;;
32228;SDS011;18717;48.034;11.186;2023-07-02T07:37:45;12.85;;;12.05;;
32228;SDS011;18717;48.034;11.186;2023-07-02T07:40:15;13.60;;;12.60;;
32228;SDS011;18717;48.034;11.186;2023-07-02T07:42:42;12.82;;;11.93;;
32228;SDS011;18717;48.034;11.186;2023-07-02T07:45:10;12.52;;;11.80;;
32228;SDS011;18717;48.034;11.186;2023-07-02T07:47:38;12.50;;;11.70;;
32228;SDS011;18717;48.034;11.186;2023-07-02T07:50:06;12.23;;;11.43;;
32228;SDS011;18717;48.034;11.186;2023-07-02T07:52:37;12.13;;;11.43;;
32228;SDS011;18717;48.034;11.186;2023-07-02T07:55:05;12.35;;;11.57;;
32228;SDS011;18717;48.034;11.186;2023-07-02T07:57:35;11.98;;;11.27;;
32228;SDS011;18717;48.034;11.186;2023-07-02T08:00:04;12.05;;;11.40;;
32228;SDS011;18717;48.034;11.186;2023-07-02T08:02:35;13.02;;;12.15;;
32228;SDS011;18717;48.034;11.186;2023-07-02T08:05:03;12.30;;;11.43;;
32228;SDS011;18717;48.034;11.186;2023-07-02T08:07:31;11.55;;;10.93;;
32228;SDS011;18717;48.034;11.186;2023-07-02T08:09:59;11.35;;;10.75;;
32228;SDS011;18717;48.034;11.186;2023-07-02T08:12:28;11.88;;;10.88;;
32228;SDS011;18717;48.034;11.186;2023-07-02T08:14:57;11.77;;;11.07;;
32228;SDS011;18717;48.034;11.186;2023-07-02T08:17:25;12.65;;;11.75;;
32228;SDS011;18717;48.034;11.186;2023-07-02T08:19:53;11.05;;;10.45;;
32228;SDS011;18717;48.034;11.186;2023-07-02T08:22:21;11.60;;;11.00;;
32228;SDS011;18717;48.034;11.186;2023-07-02T08:24:48;10.93;;;10.32;;
32228;SDS011;18717;48.034;11.186;2023-07-02T08:27:16;11.20;;;10.65;;
32228;SDS011;18717;48.034;11.186;2023-07-02T08:29:45;11.15;;;10.55;;
32228;SDS011;18717;48.034;11.186;2023-07-02T08:32:15;11.65;;;10.98;;
32228;SDS011;18717;48.034;11.186;2023-07-02T08:34:43;11.80;;;11.10;;
32228;SDS011;18717;48.034;11.186;2023-07-02T08:37:10;11.35;;;10.70;;
32228;SDS011;18717;48.034;11.186;2023-07-02T08:39:39;12.70;;;12.00;;
32228;SDS011;18717;48.034;11.186;2023-07-02T08:42:07;11.82;;;11.02;;
32228;SDS011;18717;48.034;11.186;2023-07-02T08:44:35;11.10;;;10.50;;
32228;SDS011;18717;48.034;11.186;2023-07-02T08:47:03;11.00;;;10.32;;
32228;SDS011;18717;48.034;11.186;2023-07-02T08:49:32;11.20;;;10.50;;
32228;SDS011;18717;48.034;11.186;2023-07-02T08:52:00;11.18;;;10.25;;
32228;SDS011;18717;48.034;11.186;2023-07-02T08:54:28;11.18;;;10.68;;
32228;SDS011;18717;48.034;11.186;2023-07-02T08:56:56;11.52;;;10.70;;
32228;SDS011;18717;48.034;11.186;2023-07-02T08:59:23;11.55;;;10.80;;
32228;SDS011;18717;48.034;11.186;2023-07-02T09:01:52;11.75;;;11.10;;
32228;SDS011;18717;48.034;11.186;2023-07-02T09:04:20;11.00;;;10.40;;
32228;SDS011;18717;48.034;11.186;2023-07-02T09:06:51;12.32;;;11.63;;
32228;SDS011;18717;48.034;11.186;2023-07-02T09:09:29;11.35;;;10.75;;
32228;SDS011;18717;48.034;11.186;2023-07-02T09:11:57;11.45;;;10.75;;
32228;SDS011;18717;48.034;11.186;2023-07-02T09:14:25;11.27;;;10.73;;
32228;SDS011;18717;48.034;11.186;2023-07-02T09:17:04;11.30;;;10.70;;
32228;SDS011;18717;48.034;11.186;2023-07-02T09:19:32;11.57;;;10.88;;
32228;SDS011;18717;48.034;11.186;2023-07-02T09:22:02;11.70;;;11.10;;
32228;SDS011;18717;48.034;11.186;2023-07-02T09:24:31;12.13;;;11.43;;
32228;SDS011;18717;48.034;11.186;2023-07-02T09:26:59;12.82;;;12.02;;
32228;SDS011;18717;48.034;11.186;2023-07-02T09:29:28;12.38;;;11.68;;
32228;SDS011;18717;48.034;11.186;2023-07-02T09:31:57;13.00;;;12.02;;
32228;SDS011;18717;48.034;11.186;2023-07-02T09:34:35;12.45;;;11.75;;
32228;SDS011;18717;48.034;11.186;2023-07-02T09:37:05;12.60;;;11.90;;
32228;SDS011;18717;48.034;11.186;2023-07-02T09:39:33;12.98;;;12.05;;
32228;SDS011;18717;48.034;11.186;2023-07-02T09:42:02;12.55;;;11.75;;
32228;SDS011;18717;48.034;11.186;2023-07-02T09:44:33;12.60;;;11.90;;
32228;SDS011;18717;48.034;11.186;2023-07-02T09:47:02;13.80;;;12.73;;
32228;SDS011;18717;48.034;11.186;2023-07-02T09:49:31;13.55;;;12.65;;
32228;SDS011;18717;48.034;11.186;2023-07-02T09:52:00;14.50;;;13.30;;
32228;SDS011;18717;48.034;11.186;2023-07-02T09:54:30;13.90;;;12.90;;
32228;SDS011;18717;48.034;11.186;2023-07-02T09:56:58;14.45;;;13.30;;
32228;SDS011;18717;48.034;11.186;2023-07-02T09:59:26;15.48;;;14.05;;
32228;SDS011;18717;48.034;11.186;2023-07-02T10:01:54;14.73;;;13.73;;
32228;SDS011;18717;48.034;11.186;2023-07-02T10:04:22;16.33;;;14.93;;
32228;SDS011;18717;48.034;11.186;2023-07-02T10:06:52;15.45;;;14.07;;
32228;SDS011;18717;48.034;11.186;2023-07-02T10:09:21;14.50;;;13.43;;
32228;SDS011;18717;48.034;11.186;2023-07-02T10:11:53;16.05;;;14.93;;
32228;SDS011;18717;48.034;11.186;2023-07-02T10:14:21;15.82;;;14.52;;
32228;SDS011;18717;48.034;11.186;2023-07-02T10:16:49;16.60;;;15.10;;
32228;SDS011;18717;48.034;11.186;2023-07-02T10:19:18;16.70;;;15.30;;
32228;SDS011;18717;48.034;11.186;2023-07-02T10:21:46;17.38;;;15.82;;
32228;SDS011;18717;48.034;11.186;2023-07-02T10:24:17;16.85;;;15.32;;
32228;SDS011;18717;48.034;11.186;2023-07-02T10:26:51;17.83;;;16.15;;
32228;SDS011;18717;48.034;11.186;2023-07-02T10:29:21;17.58;;;16.05;;
32228;SDS011;18717;48.034;11.186;2023-07-02T10:31:50;16.85;;;15.45;;
32228;SDS011;18717;48.034;11.186;2023-07-02T10:34:31;18.38;;;16.08;;
32228;SDS011;18717;48.034;11.186;2023-07-02T10:36:59;19.10;;;17.48;;
32228;SDS011;18717;48.034;11.186;2023-07-02T10:39:28;19.50;;;17.58;;
32228;SDS011;18717;48.034;11.186;2023-07-02T10:42:03;18.83;;;17.05;;
32228;SDS011;18717;48.034;11.186;2023-07-02T10:44:33;19.27;;;17.58;;
32228;SDS011;18717;48.034;11.186;2023-07-02T10:47:03;18.15;;;16.63;;
32228;SDS011;18717;48.034;11.186;2023-07-02T10:49:31;18.55;;;17.05;;
32228;SDS011;18717;48.034;11.186;2023-07-02T10:52:00;18.95;;;17.17;;
32228;SDS011;18717;48.034;11.186;2023-07-02T10:54:37;17.98;;;16.48;;
32228;SDS011;18717;48.034;11.186;2023-07-02T10:57:06;18.75;;;17.13;;
32228;SDS011;18717;48.034;11.186;2023-07-02T10:59:35;18.25;;;16.73;;
32228;SDS011;18717;48.034;11.186;2023-07-02T11:02:03;19.17;;;17.13;;
32228;SDS011;18717;48.034;11.186;2023-07-02T11:04:32;18.02;;;16.38;;
32228;SDS011;18717;48.034;11.186;2023-07-02T11:07:00;19.27;;;17.27;;
32228;SDS011;18717;48.034;11.186;2023-07-02T11:09:28;21.10;;;19.10;;
32228;SDS011;18717;48.034;11.186;2023-07-02T11:11:56;22.08;;;19.77;;
32228;SDS011;18717;48.034;11.186;2023-07-02T11:14:28;21.70;;;19.50;;
32228;SDS011;18717;48.034;11.186;2023-07-02T11:19:26;22.80;;;20.42;;
32228;SDS011;18717;48.034;11.186;2023-07-02T11:21:54;23.58;;;21.00;;
32228;SDS011;18717;48.034;11.186;2023-07-02T11:24:26;24.63;;;22.13;;
32228;SDS011;18717;48.034;11.186;2023-07-02T11:26:55;24.38;;;21.42;;
32228;SDS011;18717;48.034;11.186;2023-07-02T11:29:23;24.02;;;21.55;;
32228;SDS011;18717;48.034;11.186;2023-07-02T11:31:51;25.02;;;22.45;;
32228;SDS011;18717;48.034;11.186;2023-07-02T11:34:21;26.55;;;22.52;;
32228;SDS011;18717;48.034;11.186;2023-07-02T11:36:51;24.73;;;22.02;;
32228;SDS011;18717;48.034;11.186;2023-07-02T11:39:20;26.83;;;23.98;;
32228;SDS011;18717;48.034;11.186;2023-07-02T11:41:48;25.27;;;22.15;;
32228;SDS011;18717;48.034;11.186;2023-07-02T11:44:16;28.05;;;22.63;;
32228;SDS011;18717;48.034;11.186;2023-07-02T11:46:44;27.65;;;22.70;;
32228;SDS011;18717;48.034;11.186;2023-07-02T11:49:13;25.67;;;23.13;;
32228;SDS011;18717;48.034;11.186;2023-07-02T11:51:43;24.88;;;22.27;;
32228;SDS011;18717;48.034;11.186;2023-07-02T11:54:14;29.17;;;23.35;;
32228;SDS011;18717;48.034;11.186;2023-07-02T11:56:44;24.40;;;21.88;;
32228;SDS011;18717;48.034;11.186;2023-07-02T11:59:12;23.70;;;21.27;;
32228;SDS011;18717;48.034;11.186;2023-07-02T12:01:39;25.33;;;22.70;;
32228;SDS011;18717;48.034;11.186;2023-07-02T12:04:09;27.98;;;25.00;;
32228;SDS011;18717;48.034;11.186;2023-07-02T12:06:38;25.85;;;23.25;;
32228;SDS011;18717;48.034;11.186;2023-07-02T12:09:07;25.38;;;22.80;;
32228;SDS011;18717;48.034;11.186;2023-07-02T12:11:35;26.50;;;23.15;;
32228;SDS011;18717;48.034;11.186;2023-07-02T12:14:03;27.38;;;22.60;;
32228;SDS011;18717;48.034;11.186;2023-07-02T12:16:30;25.75;;;23.17;;
32228;SDS011;18717;48.034;11.186;2023-07-02T12:18:58;25.27;;;22.65;;
32228;SDS011;18717;48.034;11.186;2023-07-02T12:21:26;27.30;;;22.63;;
32228;SDS011;18717;48.034;11.186;2023-07-02T12:23:53;24.98;;;22.58;;
32228;SDS011;18717;48.034;11.186;2023-07-02T12:26:23;26.52;;;23.80;;
32228;SDS011;18717;48.034;11.186;2023-07-02T12:28:50;25.83;;;23.13;;
32228;SDS011;18717;48.034;11.186;2023-07-02T12:31:18;25.13;;;22.70;;
32228;SDS011;18717;48.034;11.186;2023-07-02T12:33:46;25.65;;;23.08;;
32228;SDS011;18717;48.034;11.186;2023-07-02T12:36:13;26.20;;;22.42;;
32228;SDS011;18717;48.034;11.186;2023-07-02T12:38:41;24.45;;;21.42;;
32228;SDS011;18717;48.034;11.186;2023-07-02T12:41:09;24.52;;;22.13;;
32228;SDS011;18717;48.034;11.186;2023-07-02T12:43:38;24.10;;;21.65;;
32228;SDS011;18717;48.034;11.186;2023-07-02T12:46:06;24.77;;;22.20;;
32228;SDS011;18717;48.034;11.186;2023-07-02T12:48:34;25.45;;;22.63;;
32228;SDS011;18717;48.034;11.186;2023-07-02T12:51:01;24.70;;;21.95;;
32228;SDS011;18717;48.034;11.186;2023-07-02T12:53:29;24.65;;;22.05;;
32228;SDS011;18717;48.034;11.186;2023-07-02T12:55:57;22.52;;;20.17;;
32228;SDS011;18717;48.034;11.186;2023-07-02T12:58:24;24.02;;;21.73;;
32228;SDS011;18717;48.034;11.186;2023-07-02T13:00:53;24.27;;;21.92;;
32228;SDS011;18717;48.034;11.186;2023-07-02T13:03:22;23.70;;;21.17;;
32228;SDS011;18717;48.034;11.186;2023-07-02T13:05:51;29.75;;;23.95;;
32228;SDS011;18717;48.034;11.186;2023-07-02T13:08:19;24.63;;;22.10;;
32228;SDS011;18717;48.034;11.186;2023-07-02T13:10:46;25.45;;;22.88;;
32228;SDS011;18717;48.034;11.186;2023-07-02T13:13:14;24.17;;;21.58;;
32228;SDS011;18717;48.034;11.186;2023-07-02T13:15:49;26.48;;;23.77;;
32228;SDS011;18717;48.034;11.186;2023-07-02T13:18:18;25.77;;;23.08;;
32228;SDS011;18717;48.034;11.186;2023-07-02T13:20:46;27.45;;;24.70;;
32228;SDS011;18717;48.034;11.186;2023-07-02T13:23:14;28.05;;;25.15;;
32228;SDS011;18717;48.034;11.186;2023-07-02T13:25:41;24.60;;;21.98;;
32228;SDS011;18717;48.034;11.186;2023-07-02T13:28:09;27.38;;;24.08;;
32228;SDS011;18717;48.034;11.186;2023-07-02T13:30:37;26.25;;;23.48;;
32228;SDS011;18717;48.034;11.186;2023-07-02T13:33:04;26.45;;;23.83;;
32228;SDS011;18717;48.034;11.186;2023-07-02T13:35:33;27.15;;;24.13;;
32228;SDS011;18717;48.034;11.186;2023-07-02T13:38:03;27.27;;;23.70;;
32228;SDS011;18717;48.034;11.186;2023-07-02T13:40:31;28.60;;;24.48;;
32228;SDS011;18717;48.034;11.186;2023-07-02T13:42:59;25.50;;;22.88;;
32228;SDS011;18717;48.034;11.186;2023-07-02T13:45:27;28.42;;;24.05;;
32228;SDS011;18717;48.034;11.186;2023-07-02T13:47:54;26.63;;;23.77;;
32228;SDS011;18717;48.034;11.186;2023-07-02T13:50:22;26.55;;;23.75;;
32228;SDS011;18717;48.034;11.186;2023-07-02T14:00:56;26.45;;;23.80;;
32228;SDS011;18717;48.034;11.186;2023-07-02T14:03:24;28.83;;;25.55;;
32228;SDS011;18717;48.034;11.186;2023-07-02T14:05:52;28.80;;;25.33;;
32228;SDS011;18717;48.034;11.186;2023-07-02T14:08:19;28.13;;;24.45;;
32228;SDS011;18717;48.034;11.186;2023-07-02T14:10:47;27.42;;;23.58;;
32228;SDS011;18717;48.034;11.186;2023-07-02T14:13:15;28.60;;;24.80;;
32228;SDS011;18717;48.034;11.186;2023-07-02T14:15:43;26.80;;;23.80;;
32228;SDS011;18717;48.034;11.186;2023-07-02T14:18:12;26.73;;;24.00;;
32228;SDS011;18717;48.034;11.186;2023-07-02T14:20:39;28.40;;;23.52;;
32228;SDS011;18717;48.034;11.186;2023-07-02T14:23:07;26.20;;;23.13;;
32228;SDS011;18717;48.034;11.186;2023-07-02T14:25:35;24.52;;;22.10;;
32228;SDS011;18717;48.034;11.186;2023-07-02T14:28:07;25.98;;;23.23;;